Time;durP1;ratioP1;P1;durP2;ratioP2;P2;SDS_P1;SDS_P2;PMS_P1;PMS_P2;Temp;Humidity;BMP_temperature;BMP_pressure;BME280_temperature;BME280_humidity;BME280_pressure;Samples;Min_cycle;Max_cycle;Signal;HPM_P1;HPM_P2
2024/03/01 00:01:17;;;;;;;;;;;;;;;12.73;86.47;98669.67;68409;1279;1015936;-69
2024/03/01 00:04:21;;;;;;;;;;;;;;;12.90;85.71;98670.45;68414;1280;1015644;-70
2024/03/01 00:07:24;;;;;;;;;;;;;;;12.94;84.82;98668.23;68411;1279;1015316;-70
2024/03/01 00:10:27;;;;;;;;;;;;;;;12.95;84.80;98664.45;68405;1279;1015718;-70
2024/03/01 00:13:29;;;;;;;;;;;;;;;12.99;84.74;98658.67;68414;1279;1015510;-70
2024/03/01 00:16:32;;;;;;;;;;;;;;;12.94;84.87;98661.75;68420;1279;1015911;-70
2024/03/01 00:19:35;;;;;;;;;;;;;;;12.98;84.73;98655.80;68408;1279;1015307;-70
2024/03/01 00:22:37;;;;;;;;;;;;;;;13.04;84.50;98654.89;68414;1279;1016334;-70
2024/03/01 00:25:40;;;;;;;;;;;;;;;13.03;84.78;98653.86;68406;1279;1016112;-70
2024/03/01 00:28:42;;;;;;;;;;;;;;;13.04;85.01;98649.89;68428;1279;1015375;-70
2024/03/01 00:31:45;;;;;;;;;;;;;;;13.16;84.47;98645.70;68427;1279;1016024;-70
2024/03/01 00:34:47;;;;;;;;;;;;;;;13.13;84.79;98640.09;68439;1279;1015524;-70
2024/03/01 00:37:50;;;;;;;;;;;;;;;13.15;84.83;98644.88;68427;1279;1016119;-70
2024/03/01 00:40:53;;;;;;;;;;;;;;;13.04;85.91;98649.94;68361;1281;1015921;-70
2024/03/01 00:43:58;;;;;;;;;;;;;;;13.11;85.26;98648.00;68353;1281;1015518;-69
2024/03/01 00:47:01;;;;;;;;;;;;;;;13.02;85.38;98646.92;68359;1281;1015285;-70
2024/03/01 00:50:04;;;;;;;;;;;;;;;13.03;85.27;98645.75;68360;1281;1015293;-70
2024/03/01 00:53:06;;;;;;;;;;;;;;;13.15;84.45;98645.25;68344;1281;1016606;-70
2024/03/01 00:56:09;;;;;;;;;;;;;;;13.10;84.04;98638.58;68347;1280;1015884;-70
2024/03/01 00:59:11;;;;;;;;;;;;;;;12.94;84.20;98633.63;68363;1280;1015713;-70
2024/03/01 01:02:15;;;;;;;;;;;;;;;12.88;84.29;98630.74;68335;1281;1016201;-69
2024/03/01 01:05:17;;;;;;;;;;;;;;;12.83;84.23;98623.73;68367;1281;1015260;-70
2024/03/01 01:08:20;;;;;;;;;;;;;;;12.75;84.82;98617.60;68350;1281;1015754;-70
2024/03/01 01:11:22;;;;;;;;;;;;;;;12.90;84.09;98617.02;68338;1281;1015659;-70
2024/03/01 01:14:25;;;;;;;;;;;;;;;12.84;84.67;98611.52;68360;1281;1016142;-70
2024/03/01 01:17:28;;;;;;;;;;;;;;;12.91;84.07;98613.32;68349;1281;1015350;-70
2024/03/01 01:20:30;;;;;;;;;;;;;;;12.80;85.60;98611.27;68377;1281;1014707;-70
2024/03/01 01:23:33;;;;;;;;;;;;;;;12.81;85.88;98611.75;68359;1281;1015646;-70
2024/03/01 01:26:35;;;;;;;;;;;;;;;12.80;86.19;98609.20;68358;1281;1015292;-70
2024/03/01 01:29:38;;;;;;;;;;;;;;;12.84;85.90;98603.81;68353;1281;1015858;-60
2024/03/01 01:32:40;;;;;;;;;;;;;;;12.87;85.71;98600.05;68342;1281;1016160;-70
2024/03/01 01:35:43;;;;;;;;;;;;;;;12.86;85.49;98586.83;68357;1281;1015925;-69
2024/03/01 01:38:46;;;;;;;;;;;;;;;12.86;85.51;98577.48;68372;1279;1016100;-70
2024/03/01 01:41:48;;;;;;;;;;;;;;;12.83;86.44;98575.45;68435;1279;1015610;-70
2024/03/01 01:44:51;;;;;;;;;;;;;;;12.80;86.41;98575.71;68437;1279;1015884;-70
2024/03/01 01:47:54;;;;;;;;;;;;;;;12.80;86.37;98570.64;68435;1279;1015421;-69
2024/03/01 01:50:56;;;;;;;;;;;;;;;12.83;86.46;98566.35;68441;1279;1014503;-70
2024/03/01 01:53:59;;;;;;;;;;;;;;;12.90;85.92;98562.38;68436;1279;1016264;-70
2024/03/01 01:57:01;;;;;;;;;;;;;;;12.93;85.45;98553.15;68432;1279;1016034;-71
2024/03/01 02:00:06;;;;;;;;;;;;;;;12.79;86.22;98551.41;68424;1279;1015602;-70
2024/03/01 02:03:09;;;;;;;;;;;;;;;12.84;85.64;98546.08;68452;1279;1016070;-70
2024/03/01 02:06:11;;;;;;;;;;;;;;;12.95;84.93;98544.55;68409;1279;1015254;-70
2024/03/01 02:09:18;;;;;;;;;;;;;;;13.09;84.02;98544.38;68425;1279;1015608;-70
2024/03/01 02:12:21;;;;;;;;;;;;;;;13.14;83.96;98539.48;68436;1279;1014477;-70
2024/03/01 02:15:24;;;;;;;;;;;;;;;13.10;84.00;98531.48;68439;1279;1015836;-70
2024/03/01 02:18:27;;;;;;;;;;;;;;;13.16;84.24;98528.23;68436;1279;1016088;-70
2024/03/01 02:21:30;;;;;;;;;;;;;;;13.27;83.31;98523.94;68440;1279;1015609;-70
2024/03/01 02:24:32;;;;;;;;;;;;;;;13.32;83.10;98521.05;68417;1279;1015542;-70
2024/03/01 02:27:35;;;;;;;;;;;;;;;13.39;82.61;98522.30;68438;1279;1016135;-70
2024/03/01 02:30:37;;;;;;;;;;;;;;;13.40;82.37;98519.06;68445;1279;1015374;-70
2024/03/01 02:33:40;;;;;;;;;;;;;;;13.44;82.53;98514.73;68434;1279;1015565;-70
2024/03/01 02:36:43;;;;;;;;;;;;;;;13.50;81.64;98512.30;68434;1279;1015187;-70
2024/03/01 02:39:46;;;;;;;;;;;;;;;13.37;82.11;98506.52;68435;1279;1015734;-70
2024/03/01 02:42:49;;;;;;;;;;;;;;;13.36;82.22;98504.42;68433;1279;1016002;-70
2024/03/01 02:45:52;;;;;;;;;;;;;;;13.34;82.54;98499.15;68434;1279;1015872;-70
2024/03/01 02:48:54;;;;;;;;;;;;;;;13.30;82.74;98501.89;68425;1279;1015953;-70
2024/03/01 02:51:57;;;;;;;;;;;;;;;13.35;82.40;98495.92;68442;1279;1015765;-69
2024/03/01 02:55:00;;;;;;;;;;;;;;;13.32;82.68;98499.63;68424;1279;1015027;-67
2024/03/01 02:58:04;;;;;;;;;;;;;;;13.28;82.96;98498.87;68432;1279;1015407;-69
2024/03/01 03:01:06;;;;;;;;;;;;;;;13.24;83.05;98494.98;68434;1279;1015494;-70
2024/03/01 03:04:09;;;;;;;;;;;;;;;13.31;82.23;98497.09;68443;1279;1015995;-70
2024/03/01 03:07:11;;;;;;;;;;;;;;;13.33;82.25;98494.29;68448;1279;1015611;-70
2024/03/01 03:10:14;;;;;;;;;;;;;;;13.33;82.05;98497.09;68434;1279;1015302;-70
2024/03/01 03:13:16;;;;;;;;;;;;;;;13.32;81.88;98501.17;68419;1279;1015869;-61
2024/03/01 03:16:19;;;;;;;;;;;;;;;13.26;81.80;98491.55;68418;1279;1015956;-70
2024/03/01 03:19:23;;;;;;;;;;;;;;;13.19;82.11;98483.58;68436;1279;1015316;-70
2024/03/01 03:22:25;;;;;;;;;;;;;;;13.16;82.19;98479.93;68445;1279;1015355;-70
2024/03/01 03:25:28;;;;;;;;;;;;;;;13.15;82.09;98477.24;68449;1279;1016510;-70
2024/03/01 03:28:31;;;;;;;;;;;;;;;13.14;82.12;98479.03;68438;1279;1015898;-70
2024/03/01 03:31:33;;;;;;;;;;;;;;;13.06;82.38;98481.46;68441;1279;1015690;-70
2024/03/01 03:34:36;;;;;;;;;;;;;;;12.98;83.09;98483.98;68432;1279;1014812;-70
2024/03/01 03:37:39;;;;;;;;;;;;;;;12.93;82.93;98481.77;68428;1279;1015266;-70
2024/03/01 03:40:41;;;;;;;;;;;;;;;12.88;83.17;98482.33;68442;1279;1015184;-70
2024/03/01 03:43:44;;;;;;;;;;;;;;;12.78;83.91;98482.33;68422;1279;1015491;-70
2024/03/01 03:46:47;;;;;;;;;;;;;;;12.77;83.98;98476.79;68431;1279;1015547;-70
2024/03/01 03:49:49;;;;;;;;;;;;;;;12.83;83.12;98472.17;68416;1279;1015751;-70
2024/03/01 03:52:52;;;;;;;;;;;;;;;12.78;83.19;98468.23;68427;1279;1016311;-71
2024/03/01 03:55:54;;;;;;;;;;;;;;;12.77;82.74;98468.17;68439;1279;1016112;-70
2024/03/01 03:58:57;;;;;;;;;;;;;;;12.81;82.47;98469.27;68417;1279;1016142;-70
2024/03/01 04:01:59;;;;;;;;;;;;;;;12.69;83.54;98468.62;68441;1279;1016050;-70
2024/03/01 04:05:02;;;;;;;;;;;;;;;12.73;83.04;98468.31;68410;1279;1015574;-70
2024/03/01 04:08:05;;;;;;;;;;;;;;;12.80;82.67;98464.77;68432;1280;1015343;-63
2024/03/01 04:11:08;;;;;;;;;;;;;;;12.75;82.24;98468.71;68452;1279;1015802;-70
2024/03/01 04:14:10;;;;;;;;;;;;;;;12.69;82.51;98466.35;68433;1279;1015491;-70
2024/03/01 04:17:13;;;;;;;;;;;;;;;12.72;82.74;98466.97;68449;1280;1015457;-70
2024/03/01 04:20:16;;;;;;;;;;;;;;;12.73;82.25;98462.92;68428;1279;1015921;-70
2024/03/01 04:23:19;;;;;;;;;;;;;;;12.72;82.24;98464.91;68446;1279;1016024;-68
2024/03/01 04:26:22;;;;;;;;;;;;;;;12.66;82.39;98463.07;68432;1279;1016608;-70
2024/03/01 04:29:25;;;;;;;;;;;;;;;12.64;82.74;98465.29;68432;1279;1015718;-70
2024/03/01 04:32:28;;;;;;;;;;;;;;;12.57;82.69;98457.77;68435;1279;1015441;-70
2024/03/01 04:35:30;;;;;;;;;;;;;;;12.45;82.90;98459.53;68431;1279;1016041;-68
2024/03/01 04:38:33;;;;;;;;;;;;;;;12.38;83.23;98461.80;68434;1280;1015636;-70
2024/03/01 04:41:35;;;;;;;;;;;;;;;12.38;83.37;98459.66;68427;1280;1016024;-70
2024/03/01 04:44:38;;;;;;;;;;;;;;;12.37;83.36;98456.97;68431;1279;1016189;-70
2024/03/01 04:47:41;;;;;;;;;;;;;;;12.34;83.01;98453.00;68444;1279;1015424;-70
2024/03/01 04:50:43;;;;;;;;;;;;;;;12.36;83.03;98460.89;68442;1280;1016089;-70
2024/03/01 04:53:46;;;;;;;;;;;;;;;12.32;82.85;98464.15;68428;1280;1015235;-70
2024/03/01 04:56:48;;;;;;;;;;;;;;;12.26;83.03;98466.86;68430;1279;1015680;-70
2024/03/01 04:59:52;;;;;;;;;;;;;;;12.22;83.83;98473.19;68431;1280;1015552;-70
2024/03/01 05:02:54;;;;;;;;;;;;;;;12.19;83.93;98474.26;68448;1280;1015274;-70
2024/03/01 05:05:57;;;;;;;;;;;;;;;12.21;83.16;98480.92;68459;1279;1015537;-70
2024/03/01 05:09:00;;;;;;;;;;;;;;;12.17;83.38;98477.77;68425;1280;1016070;-70
2024/03/01 05:12:02;;;;;;;;;;;;;;;12.10;82.92;98480.30;68417;1279;1015720;-70
2024/03/01 05:15:05;;;;;;;;;;;;;;;12.06;82.88;98474.68;68430;1279;1015629;-70
2024/03/01 05:18:08;;;;;;;;;;;;;;;11.97;83.45;98468.44;68449;1279;1016120;-70
2024/03/01 05:21:11;;;;;;;;;;;;;;;11.91;83.69;98469.91;68437;1279;1015338;-70
2024/03/01 05:24:14;;;;;;;;;;;;;;;11.79;84.16;98469.86;68449;1280;1015235;-70
2024/03/01 05:27:16;;;;;;;;;;;;;;;11.79;84.38;98466.55;68435;1280;1014457;-70
2024/03/01 05:30:19;;;;;;;;;;;;;;;11.82;84.42;98471.08;68434;1279;1015718;-70
2024/03/01 05:33:22;;;;;;;;;;;;;;;11.88;83.91;98474.66;68432;1279;1015343;-70
2024/03/01 05:36:25;;;;;;;;;;;;;;;11.93;83.95;98482.74;68423;1279;1015928;-70
2024/03/01 05:39:27;;;;;;;;;;;;;;;11.95;84.23;98484.52;68419;1280;1015353;-68
2024/03/01 05:42:30;;;;;;;;;;;;;;;12.06;83.74;98488.32;68434;1280;1015964;-70
2024/03/01 05:45:35;;;;;;;;;;;;;;;12.09;83.34;98487.38;68445;1280;1015869;-70
2024/03/01 05:48:37;;;;;;;;;;;;;;;12.07;83.25;98487.89;68433;1280;1016123;-70
2024/03/01 05:51:40;;;;;;;;;;;;;;;12.10;83.15;98482.75;68433;1280;1015457;-70
2024/03/01 05:54:42;;;;;;;;;;;;;;;12.14;82.28;98480.58;68432;1279;1015871;-70
2024/03/01 05:57:46;;;;;;;;;;;;;;;12.12;82.57;98481.95;68434;1280;1016038;-70
2024/03/01 06:00:48;;;;;;;;;;;;;;;12.10;82.80;98484.54;68443;1280;1016184;-70
2024/03/01 06:03:51;;;;;;;;;;;;;;;12.09;83.27;98484.60;68426;1279;1016064;-70
2024/03/01 06:06:54;;;;;;;;;;;;;;;12.03;83.93;98485.94;68439;1280;1015667;-70
2024/03/01 06:09:56;;;;;;;;;;;;;;;12.03;84.05;98485.75;68438;1280;1014302;-69
2024/03/01 06:12:59;;;;;;;;;;;;;;;12.06;84.70;98481.50;68435;1279;1016024;-70
2024/03/01 06:16:02;;;;;;;;;;;;;;;12.05;84.48;98476.11;68439;1280;1015838;-70
2024/03/01 06:19:05;;;;;;;;;;;;;;;12.09;84.54;98470.02;68436;1280;1016118;-70
2024/03/01 06:22:07;;;;;;;;;;;;;;;12.16;84.40;98474.78;68421;1280;1016205;-70
2024/03/01 06:25:10;;;;;;;;;;;;;;;12.16;84.59;98471.14;68420;1280;1015983;-70
2024/03/01 06:28:13;;;;;;;;;;;;;;;12.24;83.81;98473.34;68424;1280;1015440;-70
2024/03/01 06:31:15;;;;;;;;;;;;;;;12.34;83.79;98471.77;68430;1280;1015478;-70
2024/03/01 06:34:18;;;;;;;;;;;;;;;12.52;83.04;98480.25;68421;1280;1015617;-70
2024/03/01 06:37:21;;;;;;;;;;;;;;;12.64;82.78;98484.95;68428;1280;1014920;-70
2024/03/01 06:40:24;;;;;;;;;;;;;;;12.80;82.25;98486.41;68426;1280;1014810;-65
2024/03/01 06:43:26;;;;;;;;;;;;;;;12.90;81.35;98481.42;68434;1280;1015350;-70
2024/03/01 06:46:29;;;;;;;;;;;;;;;13.01;80.78;98483.95;68429;1280;1015625;-70
2024/03/01 06:49:32;;;;;;;;;;;;;;;13.04;80.85;98473.48;68432;1280;1015589;-70
2024/03/01 06:52:34;;;;;;;;;;;;;;;13.11;80.42;98475.24;68429;1280;1015346;-70
2024/03/01 06:55:37;;;;;;;;;;;;;;;13.14;80.66;98474.48;68433;1280;1016046;-70
2024/03/01 06:58:39;;;;;;;;;;;;;;;13.25;80.34;98488.05;68420;1280;1016143;-63
2024/03/01 07:01:42;;;;;;;;;;;;;;;13.32;79.99;98490.48;68419;1280;1015893;-70
2024/03/01 07:04:45;;;;;;;;;;;;;;;13.31;79.65;98490.63;68440;1280;1014366;-70
2024/03/01 07:07:47;;;;;;;;;;;;;;;13.37;79.38;98487.86;68436;1280;1016082;-69
2024/03/01 07:10:52;;;;;;;;;;;;;;;13.41;79.37;98480.36;68412;1280;1015111;-70
2024/03/01 07:13:55;;;;;;;;;;;;;;;13.42;79.37;98477.48;68424;1280;1014965;-70
2024/03/01 07:16:57;;;;;;;;;;;;;;;13.51;79.78;98477.80;68421;1280;1015401;-70
2024/03/01 07:20:00;;;;;;;;;;;;;;;13.71;79.56;98470.82;68435;1280;1014535;-68
2024/03/01 07:23:03;;;;;;;;;;;;;;;13.72;79.29;98460.23;68414;1279;1016069;-70
2024/03/01 07:26:06;;;;;;;;;;;;;;;13.71;79.19;98457.83;68429;1280;1014519;-70
2024/03/01 07:29:08;;;;;;;;;;;;;;;13.81;78.95;98457.36;68434;1280;1015344;-70
2024/03/01 07:32:11;;;;;;;;;;;;;;;14.00;77.86;98454.25;68420;1280;1016214;-70
2024/03/01 07:35:14;;;;;;;;;;;;;;;13.93;78.87;98450.26;68412;1280;1015601;-70
2024/03/01 07:38:16;;;;;;;;;;;;;;;14.04;78.86;98461.52;68442;1280;1015225;-70
2024/03/01 07:41:21;;;;;;;;;;;;;;;14.16;78.82;98472.27;68435;1280;1015518;-70
2024/03/01 07:44:23;;;;;;;;;;;;;;;14.40;78.31;98476.20;68443;1279;1015827;-70
2024/03/01 07:47:29;;;;;;;;;;;;;;;14.64;77.69;98481.08;68429;1280;1015442;-70
2024/03/01 07:50:32;;;;;;;;;;;;;;;14.81;76.74;98472.80;68424;1280;1015182;-70
2024/03/01 07:53:34;;;;;;;;;;;;;;;14.94;76.06;98467.87;68403;1279;1015224;-70
2024/03/01 07:56:37;;;;;;;;;;;;;;;14.98;76.18;98467.14;68417;1279;1015318;-70
2024/03/01 07:59:40;;;;;;;;;;;;;;;15.14;74.98;98464.91;68431;1280;1014652;-70
2024/03/01 08:02:44;;;;;;;;;;;;;;;15.17;74.57;98448.80;68429;1279;1016059;-70
2024/03/01 08:05:47;;;;;;;;;;;;;;;15.16;73.38;98452.56;65838;1280;6386557;-70
2024/03/01 08:08:50;;;;;;;;;;;;;;;15.20;74.32;98451.36;68414;1279;1016056;-70
2024/03/01 08:11:52;;;;;;;;;;;;;;;15.31;74.09;98452.85;68423;1280;1015580;-70
2024/03/01 08:14:55;;;;;;;;;;;;;;;15.44;74.23;98448.42;68435;1280;1015444;-70
2024/03/01 08:17:58;;;;;;;;;;;;;;;15.37;72.99;98453.29;68435;1280;1015014;-70
2024/03/01 08:21:03;;;;;;;;;;;;;;;15.34;72.25;98451.94;68450;1280;1015634;-70
2024/03/01 08:24:06;;;;;;;;;;;;;;;15.32;73.37;98454.27;68436;1280;1015748;-70
2024/03/01 08:27:09;;;;;;;;;;;;;;;15.39;73.01;98463.99;68425;1280;1016203;-70
2024/03/01 08:30:12;;;;;;;;;;;;;;;15.40;72.11;98464.10;68429;1280;1015840;-70
2024/03/01 08:33:14;;;;;;;;;;;;;;;15.34;72.02;98455.84;68437;1280;1015727;-70
2024/03/01 08:36:26;;;;;;;;;;;;;;;15.44;73.05;98453.00;68364;1280;1015647;-70
2024/03/01 08:39:28;;;;;;;;;;;;;;;15.61;72.54;98447.64;68414;1279;1015375;-70
2024/03/01 08:42:31;;;;;;;;;;;;;;;15.72;72.72;98451.95;68435;1280;1015252;-70
2024/03/01 08:45:34;;;;;;;;;;;;;;;15.85;72.09;98445.10;68412;1280;1015667;-70
2024/03/01 08:48:36;;;;;;;;;;;;;;;15.92;71.33;98441.42;68398;1280;1015410;-70
2024/03/01 08:51:39;;;;;;;;;;;;;;;15.87;70.58;98436.05;68418;1280;1015463;-70
2024/03/01 08:54:41;;;;;;;;;;;;;;;16.00;70.26;98438.06;68427;1280;1015226;-70
2024/03/01 08:57:44;;;;;;;;;;;;;;;16.05;69.07;98438.48;68418;1280;1016360;-70
2024/03/01 09:00:46;;;;;;;;;;;;;;;16.10;68.75;98441.39;68407;1280;1015985;-70
2024/03/01 09:03:49;;;;;;;;;;;;;;;16.12;68.53;98435.82;68410;1279;1014733;-70
2024/03/01 09:06:51;;;;;;;;;;;;;;;16.07;68.03;98421.72;68421;1280;1015374;-70
2024/03/01 09:09:54;;;;;;;;;;;;;;;16.05;67.89;98421.97;68397;1280;1015649;-68
2024/03/01 09:12:57;;;;;;;;;;;;;;;16.11;68.09;98430.75;68403;1279;1015961;-70
2024/03/01 09:16:00;;;;;;;;;;;;;;;16.28;67.01;98434.74;68414;1280;1015886;-70
2024/03/01 09:19:02;;;;;;;;;;;;;;;16.26;67.37;98423.40;68417;1280;1015722;-70
2024/03/01 09:22:05;;;;;;;;;;;;;;;16.36;67.77;98408.02;68417;1280;1015425;-70
2024/03/01 09:25:08;;;;;;;;;;;;;;;16.52;66.57;98415.65;68410;1280;1016047;-65
2024/03/01 09:28:10;;;;;;;;;;;;;;;16.63;65.52;98417.77;68419;1280;1015707;-70
2024/03/01 09:31:13;;;;;;;;;;;;;;;16.63;65.54;98421.08;68413;1280;1016083;-70
2024/03/01 09:34:16;;;;;;;;;;;;;;;16.72;65.33;98424.50;68393;1279;1015994;-69
2024/03/01 09:37:18;;;;;;;;;;;;;;;16.79;65.36;98430.91;68391;1280;1015854;-70
2024/03/01 09:40:22;;;;;;;;;;;;;;;17.01;65.40;98438.39;68420;1280;1014458;-70
2024/03/01 09:43:25;;;;;;;;;;;;;;;17.19;64.38;98438.79;68416;1280;1015776;-70
2024/03/01 09:46:28;;;;;;;;;;;;;;;17.29;64.02;98446.24;68409;1280;1015699;-70
2024/03/01 09:49:31;;;;;;;;;;;;;;;17.39;64.48;98457.50;68411;1280;1016045;-70
2024/03/01 09:52:33;;;;;;;;;;;;;;;17.49;63.95;98447.90;68423;1280;1016056;-70
2024/03/01 09:55:37;;;;;;;;;;;;;;;17.58;62.53;98435.88;68416;1280;1015949;-70
2024/03/01 09:58:40;;;;;;;;;;;;;;;17.67;63.05;98434.98;68406;1280;1017097;-70
2024/03/01 10:01:43;;;;;;;;;;;;;;;17.86;62.37;98436.06;68414;1279;1015943;-70
2024/03/01 10:04:46;;;;;;;;;;;;;;;17.95;62.04;98435.14;68411;1280;1015224;-70
2024/03/01 10:07:48;;;;;;;;;;;;;;;18.01;61.71;98439.85;68399;1280;1015150;-70
2024/03/01 10:10:51;;;;;;;;;;;;;;;18.15;61.21;98446.16;68391;1279;1014888;-65
2024/03/01 10:13:53;;;;;;;;;;;;;;;18.23;60.74;98426.30;68411;1279;1015667;-69
2024/03/01 10:16:56;;;;;;;;;;;;;;;18.32;60.99;98408.58;68398;1279;1015982;-70
2024/03/01 10:19:58;;;;;;;;;;;;;;;18.44;59.53;98405.39;68401;1280;1015689;-69
2024/03/01 10:23:01;;;;;;;;;;;;;;;18.44;59.82;98421.66;68398;1280;1015870;-70
2024/03/01 10:26:04;;;;;;;;;;;;;;;18.76;59.25;98436.07;68410;1279;1015670;-69
2024/03/01 10:29:07;;;;;;;;;;;;;;;18.83;58.77;98422.05;68408;1279;1016095;-70
2024/03/01 10:32:10;;;;;;;;;;;;;;;18.71;57.51;98415.35;68407;1279;1016081;-70
2024/03/01 10:35:12;;;;;;;;;;;;;;;18.60;58.70;98424.67;68416;1280;1016175;-69
2024/03/01 10:38:15;;;;;;;;;;;;;;;18.84;58.52;98420.95;68407;1280;1015315;-70
2024/03/01 10:41:17;;;;;;;;;;;;;;;18.89;57.36;98416.70;68407;1279;1015427;-70
2024/03/01 10:44:20;;;;;;;;;;;;;;;18.81;56.12;98413.36;68413;1279;1015872;-70
2024/03/01 10:47:23;;;;;;;;;;;;;;;18.69;56.78;98412.84;68405;1279;1014406;-70
2024/03/01 10:50:25;;;;;;;;;;;;;;;18.39;55.54;98403.95;68398;1279;1016045;-70
2024/03/01 10:53:28;;;;;;;;;;;;;;;18.23;56.92;98393.56;68408;1279;1016422;-70
2024/03/01 10:56:30;;;;;;;;;;;;;;;18.34;57.61;98386.42;68424;1279;1014704;-70
2024/03/01 10:59:33;;;;;;;;;;;;;;;18.53;57.12;98379.41;68380;1279;1015792;-70
2024/03/01 11:02:36;;;;;;;;;;;;;;;18.67;56.33;98375.12;68418;1279;1015295;-70
2024/03/01 11:05:39;;;;;;;;;;;;;;;18.79;57.01;98380.30;68413;1279;1015750;-70
2024/03/01 11:08:41;;;;;;;;;;;;;;;18.91;56.06;98379.88;68393;1279;1015248;-70
2024/03/01 11:11:45;;;;;;;;;;;;;;;18.96;55.09;98380.38;68389;1279;1016117;-70
2024/03/01 11:14:47;;;;;;;;;;;;;;;19.03;55.01;98370.25;68401;1280;1015380;-70
2024/03/01 11:17:49;;;;;;;;;;;;;;;19.08;55.16;98365.88;68402;1279;1014663;-70
2024/03/01 11:20:52;;;;;;;;;;;;;;;19.19;55.44;98372.14;68409;1279;1015713;-70
2024/03/01 11:23:55;;;;;;;;;;;;;;;19.30;54.56;98377.59;68396;1279;1016194;-61
2024/03/01 11:26:58;;;;;;;;;;;;;;;19.17;54.59;98382.29;68413;1279;1015770;-70
2024/03/01 11:30:01;;;;;;;;;;;;;;;19.14;54.41;98400.28;68389;1279;1015267;-69
2024/03/01 11:33:03;;;;;;;;;;;;;;;19.07;54.46;98407.95;68403;1279;1015648;-70
2024/03/01 11:36:06;;;;;;;;;;;;;;;19.01;54.75;98413.36;68393;1279;1016008;-70
2024/03/01 11:39:08;;;;;;;;;;;;;;;19.01;54.72;98402.55;68368;1279;1016200;-70
2024/03/01 11:42:12;;;;;;;;;;;;;;;18.84;54.58;98396.25;68353;1281;1015940;-70
2024/03/01 11:45:15;;;;;;;;;;;;;;;18.71;54.00;98397.72;68342;1281;1015486;-70
2024/03/01 11:48:17;;;;;;;;;;;;;;;18.49;54.73;98395.50;68342;1281;1015711;-70
2024/03/01 11:51:20;;;;;;;;;;;;;;;18.41;55.44;98382.39;68349;1281;1015556;-70
2024/03/01 11:54:23;;;;;;;;;;;;;;;18.42;55.22;98386.13;68339;1281;1015667;-70
2024/03/01 11:57:26;;;;;;;;;;;;;;;18.30;54.47;98377.44;68350;1281;1015746;-70
2024/03/01 12:00:28;;;;;;;;;;;;;;;17.92;55.44;98375.00;68351;1281;1015875;-70
2024/03/01 12:03:31;;;;;;;;;;;;;;;17.80;56.48;98376.09;68346;1281;1015140;-70
2024/03/01 12:06:33;;;;;;;;;;;;;;;17.84;56.10;98362.80;68331;1281;1015751;-70
2024/03/01 12:09:36;;;;;;;;;;;;;;;17.86;56.56;98365.61;68345;1281;1015815;-70
2024/03/01 12:12:38;;;;;;;;;;;;;;;17.87;55.95;98361.16;68338;1281;1016210;-70
2024/03/01 12:15:41;;;;;;;;;;;;;;;17.92;56.50;98361.20;68348;1281;1015452;-70
2024/03/01 12:18:45;;;;;;;;;;;;;;;18.15;57.02;98374.64;68339;1281;1015310;-70
2024/03/01 12:21:47;;;;;;;;;;;;;;;18.32;57.02;98375.85;68353;1280;1014563;-70
2024/03/01 12:24:50;;;;;;;;;;;;;;;18.68;55.25;98365.69;68363;1281;1016138;-70
2024/03/01 12:27:52;;;;;;;;;;;;;;;19.01;55.65;98355.97;68352;1281;1015951;-70
2024/03/01 12:30:55;;;;;;;;;;;;;;;19.25;54.27;98351.16;68341;1281;1015495;-70
2024/03/01 12:33:58;;;;;;;;;;;;;;;19.23;52.86;98349.42;68350;1280;1015968;-69
2024/03/01 12:37:01;;;;;;;;;;;;;;;19.13;53.96;98349.01;68353;1281;1015464;-64
2024/03/01 12:40:04;;;;;;;;;;;;;;;19.22;53.93;98342.77;68385;1279;1015639;-70
2024/03/01 12:43:07;;;;;;;;;;;;;;;19.24;53.49;98344.04;68397;1279;1015715;-70
2024/03/01 12:46:10;;;;;;;;;;;;;;;19.32;53.53;98344.44;68404;1279;1015578;-69
2024/03/01 12:49:15;;;;;;;;;;;;;;;19.43;53.37;98348.55;68386;1279;1015817;-70
2024/03/01 12:52:18;;;;;;;;;;;;;;;19.51;52.80;98343.85;68415;1279;1015280;-70
2024/03/01 12:55:21;;;;;;;;;;;;;;;19.51;53.17;98341.02;68388;1279;1015681;-70
2024/03/01 12:58:26;;;;;;;;;;;;;;;19.57;53.03;98342.80;68412;1279;1015684;-70
2024/03/01 13:01:28;;;;;;;;;;;;;;;19.58;52.63;98341.08;68381;1279;1015509;-70
2024/03/01 13:04:31;;;;;;;;;;;;;;;19.66;52.44;98340.95;68399;1279;1015908;-70
2024/03/01 13:07:33;;;;;;;;;;;;;;;19.74;52.54;98333.44;68397;1279;1015748;-70
2024/03/01 13:10:36;;;;;;;;;;;;;;;19.92;52.02;98326.27;68383;1279;1015865;-69
2024/03/01 13:13:39;;;;;;;;;;;;;;;19.98;52.52;98328.30;68391;1279;1016335;-70
2024/03/01 13:16:42;;;;;;;;;;;;;;;20.05;52.49;98324.63;68387;1279;1015593;-70
2024/03/01 13:19:46;;;;;;;;;;;;;;;19.94;50.36;98327.71;68392;1279;1015295;-70
2024/03/01 13:22:49;;;;;;;;;;;;;;;19.84;51.82;98333.66;68406;1279;1015615;-69
2024/03/01 13:25:51;;;;;;;;;;;;;;;19.90;51.79;98330.71;68401;1279;1015746;-70
2024/03/01 13:28:54;;;;;;;;;;;;;;;19.92;51.42;98326.78;68423;1279;1016252;-65
2024/03/01 13:31:56;;;;;;;;;;;;;;;19.76;50.58;98328.83;68388;1279;1015234;-70
2024/03/01 13:34:59;;;;;;;;;;;;;;;19.64;51.69;98333.11;68392;1279;1015573;-63
2024/03/01 13:38:03;;;;;;;;;;;;;;;19.65;51.93;98335.58;68400;1279;1015178;-69
2024/03/01 13:41:05;;;;;;;;;;;;;;;19.67;52.07;98336.24;68397;1279;1015136;-70
2024/03/01 13:44:08;;;;;;;;;;;;;;;19.61;51.76;98334.84;68387;1279;1016237;-70
2024/03/01 13:47:10;;;;;;;;;;;;;;;19.59;51.30;98335.00;68398;1279;1015679;-70
2024/03/01 13:50:14;;;;;;;;;;;;;;;19.57;51.62;98322.45;68393;1279;1015275;-70
2024/03/01 13:53:17;;;;;;;;;;;;;;;19.68;51.23;98319.91;68427;1279;1015378;-70
2024/03/01 13:56:19;;;;;;;;;;;;;;;19.64;50.96;98316.09;68400;1279;1016712;-69
2024/03/01 13:59:22;;;;;;;;;;;;;;;19.61;50.89;98319.68;68413;1279;1015611;-70
2024/03/01 14:02:25;;;;;;;;;;;;;;;19.60;51.03;98318.97;68401;1279;1015338;-70
2024/03/01 14:05:28;;;;;;;;;;;;;;;19.64;50.91;98314.06;68402;1279;1016045;-69
2024/03/01 14:08:31;;;;;;;;;;;;;;;19.52;50.08;98311.77;68408;1279;1016036;-70
2024/03/01 14:11:33;;;;;;;;;;;;;;;19.46;50.78;98322.57;68414;1279;1015723;-69
2024/03/01 14:14:36;;;;;;;;;;;;;;;19.28;50.12;98316.66;68415;1279;1014292;-70
2024/03/01 14:17:39;;;;;;;;;;;;;;;19.12;50.87;98325.95;68403;1279;1015789;-70
2024/03/01 14:20:41;;;;;;;;;;;;;;;19.06;50.62;98326.92;68398;1279;1015997;-70
2024/03/01 14:23:45;;;;;;;;;;;;;;;19.02;50.53;98324.79;68403;1279;1015651;-70
2024/03/01 14:26:48;;;;;;;;;;;;;;;18.95;50.21;98317.42;68410;1279;1015850;-70
2024/03/01 14:29:50;;;;;;;;;;;;;;;18.81;50.72;98321.67;68405;1279;1015378;-70
2024/03/01 14:32:53;;;;;;;;;;;;;;;18.73;50.75;98323.86;68404;1279;1016081;-70
2024/03/01 14:35:56;;;;;;;;;;;;;;;18.54;50.98;98320.55;68395;1279;1015935;-69
2024/03/01 14:38:59;;;;;;;;;;;;;;;18.40;51.09;98321.80;68407;1279;1015528;-70
2024/03/01 14:42:02;;;;;;;;;;;;;;;18.35;51.08;98305.46;68422;1279;1015700;-69
2024/03/01 14:45:04;;;;;;;;;;;;;;;18.26;50.88;98306.70;68402;1279;1016592;-70
2024/03/01 14:48:08;;;;;;;;;;;;;;;18.11;51.55;98319.30;68409;1279;1016090;-70
2024/03/01 14:51:10;;;;;;;;;;;;;;;18.06;51.75;98328.54;68422;1279;1015510;-70
2024/03/01 14:54:14;;;;;;;;;;;;;;;17.97;51.96;98339.68;68407;1279;1015730;-70
2024/03/01 14:57:17;;;;;;;;;;;;;;;17.73;52.40;98339.52;68416;1279;1016098;-70
2024/03/01 15:00:20;;;;;;;;;;;;;;;17.60;52.64;98329.48;68431;1279;1014768;-70
2024/03/01 15:03:23;;;;;;;;;;;;;;;17.40;52.89;98327.69;68400;1279;1015998;-70
2024/03/01 15:06:25;;;;;;;;;;;;;;;17.23;53.12;98333.61;68395;1279;1015454;-70
2024/03/01 15:09:28;;;;;;;;;;;;;;;17.14;53.72;98340.09;68429;1279;1015402;-69
2024/03/01 15:12:31;;;;;;;;;;;;;;;17.10;53.60;98342.89;68417;1279;1016559;-70
2024/03/01 15:15:34;;;;;;;;;;;;;;;17.03;53.79;98334.16;68403;1279;1016109;-68
2024/03/01 15:18:37;;;;;;;;;;;;;;;16.90;54.23;98331.41;68411;1279;1015604;-70
2024/03/01 15:21:39;;;;;;;;;;;;;;;16.92;54.02;98327.70;68400;1279;1016073;-70
2024/03/01 15:24:42;;;;;;;;;;;;;;;16.90;53.94;98330.84;68400;1279;1016182;-70
2024/03/01 15:27:44;;;;;;;;;;;;;;;16.85;54.18;98336.09;68407;1279;1016596;-69